sensor_id;sensor_type;location;lat;lon;timestamp;P1;durP1;ratioP1;P2;durP2;ratioP2
12852;SDS011;6495;51.808;7.478;2023-03-01T00:01:35;6.13;;;3.13;;
12852;SDS011;6495;51.808;7.478;2023-03-01T00:04:03;4.17;;;3.07;;
12852;SDS011;6495;51.808;7.478;2023-03-01T00:06:32;4.70;;;3.40;;
12852;SDS011;6495;51.808;7.478;2023-03-01T00:09:00;4.70;;;3.50;;
12852;SDS011;6495;51.808;7.478;2023-03-01T00:11:29;4.40;;;3.03;;
12852;SDS011;6495;51.808;7.478;2023-03-01T00:14:00;4.77;;;3.40;;
12852;SDS011;6495;51.808;7.478;2023-03-01T00:16:32;5.80;;;3.30;;
12852;SDS011;6495;51.808;7.478;2023-03-01T00:19:05;6.00;;;3.07;;
12852;SDS011;6495;51.808;7.478;2023-03-01T00:21:34;4.83;;;3.13;;
12852;SDS011;6495;51.808;7.478;2023-03-01T00:24:03;3.80;;;2.90;;
12852;SDS011;6495;51.808;7.478;2023-03-01T00:26:31;5.33;;;3.30;;
12852;SDS011;6495;51.808;7.478;2023-03-01T00:29:00;3.23;;;2.53;;
12852;SDS011;6495;51.808;7.478;2023-03-01T00:31:29;4.10;;;3.10;;
12852;SDS011;6495;51.808;7.478;2023-03-01T00:34:02;5.17;;;3.50;;
12852;SDS011;6495;51.808;7.478;2023-03-01T00:36:33;5.67;;;3.80;;
12852;SDS011;6495;51.808;7.478;2023-03-01T00:39:04;5.00;;;3.67;;
12852;SDS011;6495;51.808;7.478;2023-03-01T00:41:37;4.60;;;3.43;;
12852;SDS011;6495;51.808;7.478;2023-03-01T00:44:07;8.03;;;3.40;;
12852;SDS011;6495;51.808;7.478;2023-03-01T00:46:36;4.67;;;3.17;;
12852;SDS011;6495;51.808;7.478;2023-03-01T00:49:07;6.80;;;3.80;;
12852;SDS011;6495;51.808;7.478;2023-03-01T00:51:35;4.47;;;3.03;;
12852;SDS011;6495;51.808;7.478;2023-03-01T00:54:03;3.67;;;3.10;;
12852;SDS011;6495;51.808;7.478;2023-03-01T00:56:31;4.77;;;2.97;;
12852;SDS011;6495;51.808;7.478;2023-03-01T00:58:59;4.03;;;3.23;;
12852;SDS011;6495;51.808;7.478;2023-03-01T01:01:29;4.33;;;2.67;;
12852;SDS011;6495;51.808;7.478;2023-03-01T01:03:58;3.03;;;2.57;;
12852;SDS011;6495;51.808;7.478;2023-03-01T01:06:32;4.67;;;3.03;;
12852;SDS011;6495;51.808;7.478;2023-03-01T01:09:03;6.87;;;2.83;;
12852;SDS011;6495;51.808;7.478;2023-03-01T01:11:33;4.57;;;3.10;;
12852;SDS011;6495;51.808;7.478;2023-03-01T01:14:03;4.23;;;3.00;;
12852;SDS011;6495;51.808;7.478;2023-03-01T01:16:31;5.90;;;2.90;;
12852;SDS011;6495;51.808;7.478;2023-03-01T01:19:00;4.33;;;3.23;;
12852;SDS011;6495;51.808;7.478;2023-03-01T01:21:28;4.63;;;2.97;;
12852;SDS011;6495;51.808;7.478;2023-03-01T01:23:59;4.07;;;2.87;;
12852;SDS011;6495;51.808;7.478;2023-03-01T01:26:30;6.63;;;3.83;;
12852;SDS011;6495;51.808;7.478;2023-03-01T01:29:01;6.67;;;3.13;;
12852;SDS011;6495;51.808;7.478;2023-03-01T01:31:31;6.63;;;3.30;;
12852;SDS011;6495;51.808;7.478;2023-03-01T01:34:02;6.97;;;3.53;;
12852;SDS011;6495;51.808;7.478;2023-03-01T01:36:34;6.07;;;3.30;;
12852;SDS011;6495;51.808;7.478;2023-03-01T01:39:03;6.03;;;3.20;;
12852;SDS011;6495;51.808;7.478;2023-03-01T01:41:32;7.13;;;3.43;;
12852;SDS011;6495;51.808;7.478;2023-03-01T01:44:10;4.87;;;3.67;;
12852;SDS011;6495;51.808;7.478;2023-03-01T01:46:43;5.23;;;3.30;;
12852;SDS011;6495;51.808;7.478;2023-03-01T01:49:17;6.03;;;3.40;;
12852;SDS011;6495;51.808;7.478;2023-03-01T01:51:55;5.13;;;3.03;;
12852;SDS011;6495;51.808;7.478;2023-03-01T01:54:36;4.43;;;3.13;;
12852;SDS011;6495;51.808;7.478;2023-03-01T01:57:11;5.77;;;3.37;;
12852;SDS011;6495;51.808;7.478;2023-03-01T01:59:45;3.43;;;2.80;;
12852;SDS011;6495;51.808;7.478;2023-03-01T02:02:19;3.67;;;2.77;;
12852;SDS011;6495;51.808;7.478;2023-03-01T02:04:48;5.23;;;3.37;;
12852;SDS011;6495;51.808;7.478;2023-03-01T02:07:27;4.43;;;3.23;;
12852;SDS011;6495;51.808;7.478;2023-03-01T02:09:55;5.30;;;3.20;;
12852;SDS011;6495;51.808;7.478;2023-03-01T02:12:24;4.83;;;3.10;;
12852;SDS011;6495;51.808;7.478;2023-03-01T02:14:54;4.27;;;3.30;;
12852;SDS011;6495;51.808;7.478;2023-03-01T02:17:22;5.47;;;3.27;;
12852;SDS011;6495;51.808;7.478;2023-03-01T02:19:53;3.80;;;2.83;;
12852;SDS011;6495;51.808;7.478;2023-03-01T02:22:39;3.90;;;2.97;;
12852;SDS011;6495;51.808;7.478;2023-03-01T02:28:02;3.90;;;3.13;;
12852;SDS011;6495;51.808;7.478;2023-03-01T02:30:40;3.90;;;3.00;;
12852;SDS011;6495;51.808;7.478;2023-03-01T02:33:24;5.53;;;2.90;;
12852;SDS011;6495;51.808;7.478;2023-03-01T02:35:54;6.53;;;3.30;;
12852;SDS011;6495;51.808;7.478;2023-03-01T02:38:23;3.20;;;2.53;;
12852;SDS011;6495;51.808;7.478;2023-03-01T02:40:52;5.23;;;3.57;;
12852;SDS011;6495;51.808;7.478;2023-03-01T02:43:24;3.80;;;2.80;;
12852;SDS011;6495;51.808;7.478;2023-03-01T02:46:03;5.57;;;3.73;;
12852;SDS011;6495;51.808;7.478;2023-03-01T02:48:42;4.17;;;3.13;;
12852;SDS011;6495;51.808;7.478;2023-03-01T02:51:22;4.23;;;2.93;;
12852;SDS011;6495;51.808;7.478;2023-03-01T02:54:17;5.07;;;3.27;;
12852;SDS011;6495;51.808;7.478;2023-03-01T02:56:54;5.07;;;3.00;;
12852;SDS011;6495;51.808;7.478;2023-03-01T02:59:24;5.97;;;3.23;;
12852;SDS011;6495;51.808;7.478;2023-03-01T03:01:59;7.17;;;3.07;;
12852;SDS011;6495;51.808;7.478;2023-03-01T03:04:28;4.13;;;2.77;;
12852;SDS011;6495;51.808;7.478;2023-03-01T03:06:57;8.30;;;4.33;;
12852;SDS011;6495;51.808;7.478;2023-03-01T03:09:25;4.53;;;3.27;;
12852;SDS011;6495;51.808;7.478;2023-03-01T03:11:55;5.87;;;3.20;;
12852;SDS011;6495;51.808;7.478;2023-03-01T03:14:24;5.07;;;3.50;;
12852;SDS011;6495;51.808;7.478;2023-03-01T03:16:52;5.10;;;3.33;;
12852;SDS011;6495;51.808;7.478;2023-03-01T03:19:22;5.90;;;4.13;;
12852;SDS011;6495;51.808;7.478;2023-03-01T03:21:50;6.00;;;4.23;;
12852;SDS011;6495;51.808;7.478;2023-03-01T03:24:18;4.13;;;3.37;;
12852;SDS011;6495;51.808;7.478;2023-03-01T03:26:47;5.50;;;3.70;;
12852;SDS011;6495;51.808;7.478;2023-03-01T03:29:15;7.90;;;3.97;;
12852;SDS011;6495;51.808;7.478;2023-03-01T03:31:43;6.30;;;3.63;;
12852;SDS011;6495;51.808;7.478;2023-03-01T03:34:11;8.87;;;3.83;;
12852;SDS011;6495;51.808;7.478;2023-03-01T03:36:45;5.10;;;3.43;;
12852;SDS011;6495;51.808;7.478;2023-03-01T03:39:13;5.93;;;3.10;;
12852;SDS011;6495;51.808;7.478;2023-03-01T03:41:41;7.17;;;3.40;;
12852;SDS011;6495;51.808;7.478;2023-03-01T03:44:10;3.87;;;2.93;;
12852;SDS011;6495;51.808;7.478;2023-03-01T03:46:38;6.37;;;3.33;;
12852;SDS011;6495;51.808;7.478;2023-03-01T03:49:06;3.90;;;3.10;;
12852;SDS011;6495;51.808;7.478;2023-03-01T03:51:34;4.63;;;3.00;;
12852;SDS011;6495;51.808;7.478;2023-03-01T03:54:04;4.90;;;3.77;;
12852;SDS011;6495;51.808;7.478;2023-03-01T03:56:32;5.23;;;3.27;;
12852;SDS011;6495;51.808;7.478;2023-03-01T03:59:01;3.83;;;2.70;;
12852;SDS011;6495;51.808;7.478;2023-03-01T04:01:29;5.63;;;3.00;;
12852;SDS011;6495;51.808;7.478;2023-03-01T04:03:57;4.37;;;3.23;;
12852;SDS011;6495;51.808;7.478;2023-03-01T04:06:30;4.93;;;3.33;;
12852;SDS011;6495;51.808;7.478;2023-03-01T04:08:58;5.57;;;3.27;;
12852;SDS011;6495;51.808;7.478;2023-03-01T04:11:30;4.90;;;3.20;;
12852;SDS011;6495;51.808;7.478;2023-03-01T04:14:00;5.37;;;2.83;;
12852;SDS011;6495;51.808;7.478;2023-03-01T04:16:30;4.10;;;2.80;;
12852;SDS011;6495;51.808;7.478;2023-03-01T04:18:59;4.77;;;2.97;;
12852;SDS011;6495;51.808;7.478;2023-03-01T04:21:27;6.23;;;3.97;;
12852;SDS011;6495;51.808;7.478;2023-03-01T04:23:55;2.90;;;2.43;;
12852;SDS011;6495;51.808;7.478;2023-03-01T04:26:23;6.17;;;3.20;;
12852;SDS011;6495;51.808;7.478;2023-03-01T04:28:54;5.33;;;3.10;;
12852;SDS011;6495;51.808;7.478;2023-03-01T04:31:25;8.27;;;3.53;;
12852;SDS011;6495;51.808;7.478;2023-03-01T04:33:54;4.07;;;2.87;;
12852;SDS011;6495;51.808;7.478;2023-03-01T04:36:23;4.97;;;3.10;;
12852;SDS011;6495;51.808;7.478;2023-03-01T04:38:54;3.47;;;2.73;;
12852;SDS011;6495;51.808;7.478;2023-03-01T04:41:23;4.87;;;2.77;;
12852;SDS011;6495;51.808;7.478;2023-03-01T04:43:54;5.30;;;3.53;;
12852;SDS011;6495;51.808;7.478;2023-03-01T04:46:22;4.30;;;3.40;;
12852;SDS011;6495;51.808;7.478;2023-03-01T04:48:51;4.87;;;2.80;;
12852;SDS011;6495;51.808;7.478;2023-03-01T04:51:19;6.83;;;2.60;;
12852;SDS011;6495;51.808;7.478;2023-03-01T04:53:48;3.20;;;2.70;;
12852;SDS011;6495;51.808;7.478;2023-03-01T04:56:16;6.33;;;3.43;;
12852;SDS011;6495;51.808;7.478;2023-03-01T04:58:45;4.60;;;3.37;;
12852;SDS011;6495;51.808;7.478;2023-03-01T05:01:15;4.90;;;3.30;;
12852;SDS011;6495;51.808;7.478;2023-03-01T05:03:47;6.07;;;2.93;;
12852;SDS011;6495;51.808;7.478;2023-03-01T05:06:18;4.80;;;3.53;;
12852;SDS011;6495;51.808;7.478;2023-03-01T05:08:47;5.57;;;3.20;;
12852;SDS011;6495;51.808;7.478;2023-03-01T05:11:16;5.47;;;3.43;;
12852;SDS011;6495;51.808;7.478;2023-03-01T05:13:44;5.30;;;3.40;;
12852;SDS011;6495;51.808;7.478;2023-03-01T05:16:12;4.57;;;3.00;;
12852;SDS011;6495;51.808;7.478;2023-03-01T05:18:43;4.13;;;2.87;;
12852;SDS011;6495;51.808;7.478;2023-03-01T05:21:13;4.00;;;2.97;;
12852;SDS011;6495;51.808;7.478;2023-03-01T05:23:42;4.07;;;3.33;;
12852;SDS011;6495;51.808;7.478;2023-03-01T05:26:13;5.63;;;3.00;;
12852;SDS011;6495;51.808;7.478;2023-03-01T05:28:53;6.67;;;3.37;;
12852;SDS011;6495;51.808;7.478;2023-03-01T05:31:27;4.57;;;2.70;;
12852;SDS011;6495;51.808;7.478;2023-03-01T05:33:57;4.90;;;3.07;;
12852;SDS011;6495;51.808;7.478;2023-03-01T05:36:25;6.23;;;4.10;;
12852;SDS011;6495;51.808;7.478;2023-03-01T05:38:53;5.07;;;3.10;;
12852;SDS011;6495;51.808;7.478;2023-03-01T05:41:22;5.13;;;3.53;;
12852;SDS011;6495;51.808;7.478;2023-03-01T05:43:50;4.27;;;3.57;;
12852;SDS011;6495;51.808;7.478;2023-03-01T05:46:18;5.97;;;3.70;;
12852;SDS011;6495;51.808;7.478;2023-03-01T05:48:47;6.10;;;3.60;;
12852;SDS011;6495;51.808;7.478;2023-03-01T05:51:16;5.10;;;3.93;;
12852;SDS011;6495;51.808;7.478;2023-03-01T05:53:44;5.80;;;4.43;;
12852;SDS011;6495;51.808;7.478;2023-03-01T05:56:12;5.43;;;3.47;;
12852;SDS011;6495;51.808;7.478;2023-03-01T05:58:41;8.53;;;4.40;;
12852;SDS011;6495;51.808;7.478;2023-03-01T06:01:11;5.93;;;4.27;;
12852;SDS011;6495;51.808;7.478;2023-03-01T06:03:40;4.67;;;3.43;;
12852;SDS011;6495;51.808;7.478;2023-03-01T06:06:09;6.87;;;3.90;;
12852;SDS011;6495;51.808;7.478;2023-03-01T06:08:37;6.43;;;3.43;;
12852;SDS011;6495;51.808;7.478;2023-03-01T06:11:06;4.77;;;3.27;;
12852;SDS011;6495;51.808;7.478;2023-03-01T06:13:34;5.10;;;3.03;;
12852;SDS011;6495;51.808;7.478;2023-03-01T06:16:04;5.20;;;3.17;;
12852;SDS011;6495;51.808;7.478;2023-03-01T06:18:33;6.37;;;3.40;;
12852;SDS011;6495;51.808;7.478;2023-03-01T06:21:01;7.13;;;4.10;;
12852;SDS011;6495;51.808;7.478;2023-03-01T06:23:32;6.97;;;3.40;;
12852;SDS011;6495;51.808;7.478;2023-03-01T06:26:00;4.00;;;3.10;;
12852;SDS011;6495;51.808;7.478;2023-03-01T06:28:34;5.07;;;3.13;;
12852;SDS011;6495;51.808;7.478;2023-03-01T06:31:03;5.60;;;3.30;;
12852;SDS011;6495;51.808;7.478;2023-03-01T06:33:34;4.50;;;2.77;;
12852;SDS011;6495;51.808;7.478;2023-03-01T06:36:03;6.17;;;4.07;;
12852;SDS011;6495;51.808;7.478;2023-03-01T06:38:33;5.33;;;3.23;;
12852;SDS011;6495;51.808;7.478;2023-03-01T06:41:02;3.97;;;3.13;;
12852;SDS011;6495;51.808;7.478;2023-03-01T06:43:30;5.47;;;3.77;;
12852;SDS011;6495;51.808;7.478;2023-03-01T06:45:58;6.47;;;4.20;;
12852;SDS011;6495;51.808;7.478;2023-03-01T06:48:27;5.90;;;3.63;;
12852;SDS011;6495;51.808;7.478;2023-03-01T06:50:57;6.57;;;3.33;;
12852;SDS011;6495;51.808;7.478;2023-03-01T06:53:27;9.33;;;4.00;;
12852;SDS011;6495;51.808;7.478;2023-03-01T06:55:57;4.90;;;3.03;;
12852;SDS011;6495;51.808;7.478;2023-03-01T06:58:26;6.53;;;3.60;;
12852;SDS011;6495;51.808;7.478;2023-03-01T07:00:54;8.30;;;3.90;;
12852;SDS011;6495;51.808;7.478;2023-03-01T07:03:23;4.47;;;3.63;;
12852;SDS011;6495;51.808;7.478;2023-03-01T07:05:51;6.60;;;3.77;;
12852;SDS011;6495;51.808;7.478;2023-03-01T07:08:19;7.47;;;3.60;;
12852;SDS011;6495;51.808;7.478;2023-03-01T07:10:48;4.27;;;3.03;;
12852;SDS011;6495;51.808;7.478;2023-03-01T07:13:23;4.10;;;3.27;;
12852;SDS011;6495;51.808;7.478;2023-03-01T07:15:52;6.13;;;3.80;;
12852;SDS011;6495;51.808;7.478;2023-03-01T07:18:20;5.73;;;3.70;;
12852;SDS011;6495;51.808;7.478;2023-03-01T07:20:48;3.67;;;3.30;;
12852;SDS011;6495;51.808;7.478;2023-03-01T07:23:16;6.53;;;3.73;;
12852;SDS011;6495;51.808;7.478;2023-03-01T07:25:48;6.20;;;3.97;;
12852;SDS011;6495;51.808;7.478;2023-03-01T07:28:20;5.27;;;3.60;;
12852;SDS011;6495;51.808;7.478;2023-03-01T07:30:52;6.43;;;3.73;;
12852;SDS011;6495;51.808;7.478;2023-03-01T07:33:20;7.27;;;4.23;;
12852;SDS011;6495;51.808;7.478;2023-03-01T07:35:55;4.33;;;3.10;;
12852;SDS011;6495;51.808;7.478;2023-03-01T07:38:25;6.47;;;3.40;;
12852;SDS011;6495;51.808;7.478;2023-03-01T07:40:53;6.97;;;3.13;;
12852;SDS011;6495;51.808;7.478;2023-03-01T07:43:27;5.43;;;3.40;;
12852;SDS011;6495;51.808;7.478;2023-03-01T07:45:57;4.87;;;3.70;;
12852;SDS011;6495;51.808;7.478;2023-03-01T07:48:27;5.23;;;3.47;;
12852;SDS011;6495;51.808;7.478;2023-03-01T07:50:57;4.87;;;3.43;;
12852;SDS011;6495;51.808;7.478;2023-03-01T07:53:26;4.67;;;3.40;;
12852;SDS011;6495;51.808;7.478;2023-03-01T07:56:01;6.43;;;3.77;;
12852;SDS011;6495;51.808;7.478;2023-03-01T07:58:33;5.23;;;4.40;;
12852;SDS011;6495;51.808;7.478;2023-03-01T08:01:02;6.27;;;4.20;;
12852;SDS011;6495;51.808;7.478;2023-03-01T08:03:31;5.53;;;3.40;;
12852;SDS011;6495;51.808;7.478;2023-03-01T08:05:59;6.07;;;3.63;;
12852;SDS011;6495;51.808;7.478;2023-03-01T08:08:28;4.33;;;3.40;;
12852;SDS011;6495;51.808;7.478;2023-03-01T08:10:56;4.70;;;3.77;;
12852;SDS011;6495;51.808;7.478;2023-03-01T08:13:25;9.03;;;4.53;;
12852;SDS011;6495;51.808;7.478;2023-03-01T08:15:59;6.00;;;3.70;;
12852;SDS011;6495;51.808;7.478;2023-03-01T08:18:30;6.80;;;4.27;;
12852;SDS011;6495;51.808;7.478;2023-03-01T08:21:01;5.97;;;3.67;;
12852;SDS011;6495;51.808;7.478;2023-03-01T08:23:30;5.60;;;3.43;;
12852;SDS011;6495;51.808;7.478;2023-03-01T08:26:06;5.43;;;3.67;;
12852;SDS011;6495;51.808;7.478;2023-03-01T08:28:36;5.90;;;3.73;;
12852;SDS011;6495;51.808;7.478;2023-03-01T08:31:13;5.33;;;3.43;;
12852;SDS011;6495;51.808;7.478;2023-03-01T08:33:45;9.43;;;4.43;;
12852;SDS011;6495;51.808;7.478;2023-03-01T08:36:17;6.43;;;3.93;;
12852;SDS011;6495;51.808;7.478;2023-03-01T08:38:47;7.50;;;4.03;;
12852;SDS011;6495;51.808;7.478;2023-03-01T08:41:15;8.43;;;3.87;;
12852;SDS011;6495;51.808;7.478;2023-03-01T08:43:43;7.97;;;4.67;;
12852;SDS011;6495;51.808;7.478;2023-03-01T08:46:13;10.67;;;3.87;;
12852;SDS011;6495;51.808;7.478;2023-03-01T08:48:42;8.73;;;4.57;;
12852;SDS011;6495;51.808;7.478;2023-03-01T08:51:11;7.23;;;3.83;;
12852;SDS011;6495;51.808;7.478;2023-03-01T08:53:42;7.17;;;4.20;;
12852;SDS011;6495;51.808;7.478;2023-03-01T08:56:11;5.10;;;3.60;;
12852;SDS011;6495;51.808;7.478;2023-03-01T08:58:39;5.97;;;3.67;;
12852;SDS011;6495;51.808;7.478;2023-03-01T09:01:12;11.67;;;5.07;;
12852;SDS011;6495;51.808;7.478;2023-03-01T09:03:43;7.60;;;4.10;;
12852;SDS011;6495;51.808;7.478;2023-03-01T09:06:13;7.07;;;3.70;;
12852;SDS011;6495;51.808;7.478;2023-03-01T09:08:42;5.20;;;4.00;;
12852;SDS011;6495;51.808;7.478;2023-03-01T09:11:12;6.77;;;4.57;;
12852;SDS011;6495;51.808;7.478;2023-03-01T09:13:44;6.97;;;4.50;;
12852;SDS011;6495;51.808;7.478;2023-03-01T09:16:15;6.13;;;4.10;;
12852;SDS011;6495;51.808;7.478;2023-03-01T09:18:48;5.43;;;3.50;;
12852;SDS011;6495;51.808;7.478;2023-03-01T09:21:18;8.20;;;3.83;;
12852;SDS011;6495;51.808;7.478;2023-03-01T09:24:05;6.00;;;3.70;;
12852;SDS011;6495;51.808;7.478;2023-03-01T09:26:34;7.03;;;4.87;;
12852;SDS011;6495;51.808;7.478;2023-03-01T09:29:02;5.83;;;4.07;;
12852;SDS011;6495;51.808;7.478;2023-03-01T09:31:32;7.30;;;3.80;;
12852;SDS011;6495;51.808;7.478;2023-03-01T09:34:00;5.57;;;4.23;;
12852;SDS011;6495;51.808;7.478;2023-03-01T09:36:28;7.30;;;3.87;;
12852;SDS011;6495;51.808;7.478;2023-03-01T09:38:57;6.33;;;4.00;;
12852;SDS011;6495;51.808;7.478;2023-03-01T09:41:38;5.10;;;3.53;;
12852;SDS011;6495;51.808;7.478;2023-03-01T09:44:22;6.17;;;4.37;;
12852;SDS011;6495;51.808;7.478;2023-03-01T09:46:59;6.97;;;4.00;;
12852;SDS011;6495;51.808;7.478;2023-03-01T09:49:29;5.53;;;3.90;;
12852;SDS011;6495;51.808;7.478;2023-03-01T09:52:03;7.50;;;4.20;;
12852;SDS011;6495;51.808;7.478;2023-03-01T09:54:48;7.47;;;4.73;;
12852;SDS011;6495;51.808;7.478;2023-03-01T09:57:26;5.03;;;3.90;;
12852;SDS011;6495;51.808;7.478;2023-03-01T10:00:13;7.40;;;4.50;;
12852;SDS011;6495;51.808;7.478;2023-03-01T10:02:54;7.53;;;4.33;;
12852;SDS011;6495;51.808;7.478;2023-03-01T10:05:33;4.23;;;2.77;;
12852;SDS011;6495;51.808;7.478;2023-03-01T10:08:18;6.70;;;3.90;;
12852;SDS011;6495;51.808;7.478;2023-03-01T10:10:57;4.73;;;3.47;;
12852;SDS011;6495;51.808;7.478;2023-03-01T10:13:27;7.43;;;3.87;;
12852;SDS011;6495;51.808;7.478;2023-03-01T10:16:11;7.77;;;3.40;;
12852;SDS011;6495;51.808;7.478;2023-03-01T10:18:53;8.83;;;4.13;;
12852;SDS011;6495;51.808;7.478;2023-03-01T10:21:29;6.83;;;4.90;;
12852;SDS011;6495;51.808;7.478;2023-03-01T10:24:00;4.97;;;3.10;;
12852;SDS011;6495;51.808;7.478;2023-03-01T10:26:43;5.63;;;3.60;;
12852;SDS011;6495;51.808;7.478;2023-03-01T10:29:18;6.47;;;3.87;;
12852;SDS011;6495;51.808;7.478;2023-03-01T10:31:53;5.30;;;3.70;;
12852;SDS011;6495;51.808;7.478;2023-03-01T10:34:28;8.20;;;4.70;;
12852;SDS011;6495;51.808;7.478;2023-03-01T10:37:01;7.53;;;3.73;;
12852;SDS011;6495;51.808;7.478;2023-03-01T10:39:53;6.30;;;3.60;;
12852;SDS011;6495;51.808;7.478;2023-03-01T10:42:33;8.33;;;4.13;;
12852;SDS011;6495;51.808;7.478;2023-03-01T10:45:15;6.60;;;4.40;;
12852;SDS011;6495;51.808;7.478;2023-03-01T10:48:03;9.47;;;4.80;;
12852;SDS011;6495;51.808;7.478;2023-03-01T10:50:41;7.67;;;4.47;;
12852;SDS011;6495;51.808;7.478;2023-03-01T10:53:22;6.23;;;4.07;;
12852;SDS011;6495;51.808;7.478;2023-03-01T10:55:56;7.03;;;4.33;;
12852;SDS011;6495;51.808;7.478;2023-03-01T10:58:31;7.63;;;5.00;;
12852;SDS011;6495;51.808;7.478;2023-03-01T11:01:02;7.97;;;5.17;;
12852;SDS011;6495;51.808;7.478;2023-03-01T11:03:34;8.50;;;4.60;;
12852;SDS011;6495;51.808;7.478;2023-03-01T11:06:20;7.67;;;4.70;;
12852;SDS011;6495;51.808;7.478;2023-03-01T11:08:49;9.43;;;4.57;;
12852;SDS011;6495;51.808;7.478;2023-03-01T11:11:31;9.87;;;5.20;;
12852;SDS011;6495;51.808;7.478;2023-03-01T11:14:03;7.13;;;4.13;;
12852;SDS011;6495;51.808;7.478;2023-03-01T11:16:58;5.70;;;3.57;;
12852;SDS011;6495;51.808;7.478;2023-03-01T11:19:29;7.63;;;4.27;;
12852;SDS011;6495;51.808;7.478;2023-03-01T11:21:59;7.90;;;4.37;;
12852;SDS011;6495;51.808;7.478;2023-03-01T11:24:34;7.23;;;4.50;;
12852;SDS011;6495;51.808;7.478;2023-03-01T11:27:19;8.80;;;5.07;;
12852;SDS011;6495;51.808;7.478;2023-03-01T11:29:53;8.90;;;4.17;;
12852;SDS011;6495;51.808;7.478;2023-03-01T11:32:28;7.07;;;4.67;;
12852;SDS011;6495;51.808;7.478;2023-03-01T11:35:09;5.77;;;3.53;;
12852;SDS011;6495;51.808;7.478;2023-03-01T11:37:51;11.90;;;4.90;;
12852;SDS011;6495;51.808;7.478;2023-03-01T11:40:32;8.97;;;5.17;;
12852;SDS011;6495;51.808;7.478;2023-03-01T11:43:14;7.13;;;4.60;;
12852;SDS011;6495;51.808;7.478;2023-03-01T11:49:35;9.27;;;5.50;;
12852;SDS011;6495;51.808;7.478;2023-03-01T11:52:24;8.83;;;4.53;;
12852;SDS011;6495;51.808;7.478;2023-03-01T11:55:12;9.20;;;4.23;;
12852;SDS011;6495;51.808;7.478;2023-03-01T11:58:14;8.40;;;4.80;;
12852;SDS011;6495;51.808;7.478;2023-03-01T12:01:09;8.27;;;4.73;;
12852;SDS011;6495;51.808;7.478;2023-03-01T12:03:56;9.53;;;5.73;;
12852;SDS011;6495;51.808;7.478;2023-03-01T12:06:55;8.27;;;5.50;;
12852;SDS011;6495;51.808;7.478;2023-03-01T12:09:32;10.53;;;5.20;;
12852;SDS011;6495;51.808;7.478;2023-03-01T12:12:30;7.43;;;5.30;;
12852;SDS011;6495;51.808;7.478;2023-03-01T12:15:20;8.27;;;5.47;;
12852;SDS011;6495;51.808;7.478;2023-03-01T12:18:19;8.73;;;5.33;;
12852;SDS011;6495;51.808;7.478;2023-03-01T12:21:05;9.00;;;4.97;;
12852;SDS011;6495;51.808;7.478;2023-03-01T12:23:57;6.63;;;4.47;;
12852;SDS011;6495;51.808;7.478;2023-03-01T12:26:45;6.83;;;4.50;;
12852;SDS011;6495;51.808;7.478;2023-03-01T12:29:30;6.70;;;5.00;;
12852;SDS011;6495;51.808;7.478;2023-03-01T12:32:15;7.93;;;5.07;;
12852;SDS011;6495;51.808;7.478;2023-03-01T12:35:19;9.60;;;5.63;;
12852;SDS011;6495;51.808;7.478;2023-03-01T12:38:36;10.63;;;5.30;;
12852;SDS011;6495;51.808;7.478;2023-03-01T12:41:19;6.90;;;5.00;;
12852;SDS011;6495;51.808;7.478;2023-03-01T12:44:11;7.23;;;4.23;;
12852;SDS011;6495;51.808;7.478;2023-03-01T12:47:16;10.63;;;4.33;;
12852;SDS011;6495;51.808;7.478;2023-03-01T12:50:01;7.93;;;4.33;;
12852;SDS011;6495;51.808;7.478;2023-03-01T12:52:38;6.77;;;5.27;;
12852;SDS011;6495;51.808;7.478;2023-03-01T12:55:18;11.63;;;4.80;;
12852;SDS011;6495;51.808;7.478;2023-03-01T12:57:59;7.60;;;4.17;;
12852;SDS011;6495;51.808;7.478;2023-03-01T13:00:41;8.73;;;5.60;;
12852;SDS011;6495;51.808;7.478;2023-03-01T13:03:22;8.13;;;4.47;;
12852;SDS011;6495;51.808;7.478;2023-03-01T13:06:03;8.07;;;4.53;;
12852;SDS011;6495;51.808;7.478;2023-03-01T13:08:41;7.73;;;4.80;;
12852;SDS011;6495;51.808;7.478;2023-03-01T13:11:17;5.43;;;3.90;;
12852;SDS011;6495;51.808;7.478;2023-03-01T13:13:49;7.13;;;4.30;;
12852;SDS011;6495;51.808;7.478;2023-03-01T13:16:21;6.03;;;4.03;;
12852;SDS011;6495;51.808;7.478;2023-03-01T13:19:14;8.53;;;4.53;;
12852;SDS011;6495;51.808;7.478;2023-03-01T13:21:45;6.30;;;4.20;;
12852;SDS011;6495;51.808;7.478;2023-03-01T13:24:26;6.00;;;4.37;;
12852;SDS011;6495;51.808;7.478;2023-03-01T13:29:55;6.23;;;3.93;;
12852;SDS011;6495;51.808;7.478;2023-03-01T13:32:30;6.93;;;4.30;;
12852;SDS011;6495;51.808;7.478;2023-03-01T13:41:12;10.13;;;5.00;;
12852;SDS011;6495;51.808;7.478;2023-03-01T13:43:42;7.17;;;4.67;;
12852;SDS011;6495;51.808;7.478;2023-03-01T13:46:15;7.03;;;4.90;;
12852;SDS011;6495;51.808;7.478;2023-03-01T13:48:49;7.37;;;4.50;;
12852;SDS011;6495;51.808;7.478;2023-03-01T13:51:24;9.63;;;4.57;;
12852;SDS011;6495;51.808;7.478;2023-03-01T13:53:55;7.60;;;4.60;;
12852;SDS011;6495;51.808;7.478;2023-03-01T13:56:27;7.37;;;4.37;;
12852;SDS011;6495;51.808;7.478;2023-03-01T13:59:01;7.43;;;4.70;;
12852;SDS011;6495;51.808;7.478;2023-03-01T14:01:35;8.03;;;4.37;;
12852;SDS011;6495;51.808;7.478;2023-03-01T14:04:16;9.67;;;4.30;;
12852;SDS011;6495;51.808;7.478;2023-03-01T14:06:49;6.43;;;4.00;;
12852;SDS011;6495;51.808;7.478;2023-03-01T14:09:18;5.73;;;4.03;;
12852;SDS011;6495;51.808;7.478;2023-03-01T14:14:55;6.70;;;4.17;;
12852;SDS011;6495;51.808;7.478;2023-03-01T14:17:42;6.73;;;4.33;;
12852;SDS011;6495;51.808;7.478;2023-03-01T14:20:23;8.30;;;4.30;;
12852;SDS011;6495;51.808;7.478;2023-03-01T14:22:57;6.93;;;3.90;;
12852;SDS011;6495;51.808;7.478;2023-03-01T14:25:29;9.50;;;4.50;;
12852;SDS011;6495;51.808;7.478;2023-03-01T14:28:02;6.60;;;3.73;;
12852;SDS011;6495;51.808;7.478;2023-03-01T14:30:42;6.07;;;3.27;;
12852;SDS011;6495;51.808;7.478;2023-03-01T14:33:23;7.20;;;4.50;;
12852;SDS011;6495;51.808;7.478;2023-03-01T14:35:54;7.97;;;4.60;;
12852;SDS011;6495;51.808;7.478;2023-03-01T14:38:31;7.13;;;4.13;;
12852;SDS011;6495;51.808;7.478;2023-03-01T14:41:03;6.30;;;4.30;;
12852;SDS011;6495;51.808;7.478;2023-03-01T14:43:36;6.27;;;3.93;;
12852;SDS011;6495;51.808;7.478;2023-03-01T14:46:16;5.23;;;3.73;;
12852;SDS011;6495;51.808;7.478;2023-03-01T14:48:48;7.23;;;4.30;;
12852;SDS011;6495;51.808;7.478;2023-03-01T14:51:19;6.60;;;4.40;;
12852;SDS011;6495;51.808;7.478;2023-03-01T14:53:49;5.83;;;4.03;;
12852;SDS011;6495;51.808;7.478;2023-03-01T14:56:19;6.60;;;3.93;;
12852;SDS011;6495;51.808;7.478;2023-03-01T14:58:50;6.90;;;4.50;;
12852;SDS011;6495;51.808;7.478;2023-03-01T15:01:20;6.63;;;4.10;;
12852;SDS011;6495;51.808;7.478;2023-03-01T15:03:49;7.27;;;3.70;;
12852;SDS011;6495;51.808;7.478;2023-03-01T15:06:19;7.03;;;3.50;;
12852;SDS011;6495;51.808;7.478;2023-03-01T15:08:52;5.73;;;3.10;;
12852;SDS011;6495;51.808;7.478;2023-03-01T15:11:23;7.23;;;4.07;;
12852;SDS011;6495;51.808;7.478;2023-03-01T15:13:57;6.13;;;3.70;;
12852;SDS011;6495;51.808;7.478;2023-03-01T15:16:26;10.20;;;4.23;;
12852;SDS011;6495;51.808;7.478;2023-03-01T15:18:58;6.33;;;4.00;;
12852;SDS011;6495;51.808;7.478;2023-03-01T15:21:30;6.17;;;3.73;;
12852;SDS011;6495;51.808;7.478;2023-03-01T15:24:05;5.90;;;3.80;;
12852;SDS011;6495;51.808;7.478;2023-03-01T15:26:49;6.70;;;3.67;;
12852;SDS011;6495;51.808;7.478;2023-03-01T15:29:24;7.70;;;4.20;;
12852;SDS011;6495;51.808;7.478;2023-03-01T15:31:57;5.93;;;3.80;;
12852;SDS011;6495;51.808;7.478;2023-03-01T15:34:30;5.80;;;3.67;;
12852;SDS011;6495;51.808;7.478;2023-03-01T15:37:01;7.50;;;4.20;;
12852;SDS011;6495;51.808;7.478;2023-03-01T15:39:37;5.63;;;3.70;;
12852;SDS011;6495;51.808;7.478;2023-03-01T15:42:10;5.93;;;4.03;;
12852;SDS011;6495;51.808;7.478;2023-03-01T15:44:42;5.20;;;3.40;;
12852;SDS011;6495;51.808;7.478;2023-03-01T15:47:22;7.00;;;4.50;;
12852;SDS011;6495;51.808;7.478;2023-03-01T15:49:57;5.80;;;3.63;;
12852;SDS011;6495;51.808;7.478;2023-03-01T15:52:28;6.60;;;4.00;;
12852;SDS011;6495;51.808;7.478;2023-03-01T15:55:15;5.10;;;3.33;;
12852;SDS011;6495;51.808;7.478;2023-03-01T15:57:47;4.40;;;3.30;;